createdAt,value
2019-03-05T00:01:57.727Z,0.83
2019-03-05T00:04:26.670Z,1.47
2019-03-05T00:06:55.552Z,0.90
2019-03-05T00:09:24.454Z,0.93
2019-03-05T00:11:53.599Z,1.00
2019-03-05T00:14:25.387Z,1.17
2019-03-05T00:16:54.285Z,1.10
2019-03-05T00:19:23.272Z,1.40
2019-03-05T00:21:52.410Z,0.90
2019-03-05T00:24:57.725Z,1.20
2019-03-05T00:27:27.298Z,0.67
2019-03-05T00:30:24.454Z,1.35
2019-03-05T00:32:58.065Z,0.75
2019-03-05T00:35:42.156Z,1.10
2019-03-05T00:38:52.242Z,1.25
2019-03-05T00:41:39.064Z,1.00
2019-03-05T00:44:37.886Z,1.02
2019-03-05T00:47:38.885Z,1.00
2019-03-05T00:50:55.082Z,1.22
2019-03-05T00:53:57.337Z,1.10
2019-03-05T00:56:57.000Z,0.90
2019-03-05T01:00:00.872Z,1.12
2019-03-05T01:02:46.402Z,1.10
2019-03-05T01:06:02.630Z,1.12
2019-03-05T01:08:32.936Z,1.37
2019-03-05T01:11:02.251Z,1.00
2019-03-05T01:13:32.019Z,1.00
2019-03-05T01:16:01.054Z,1.00
2019-03-05T01:18:30.100Z,1.20
2019-03-05T01:20:59.445Z,0.70
2019-03-05T01:23:28.724Z,0.80
2019-03-05T01:25:57.644Z,0.50
2019-03-05T01:28:26.563Z,0.60
2019-03-05T01:31:29.787Z,0.50
2019-03-05T01:34:06.523Z,0.50
2019-03-05T01:36:38.698Z,0.73
2019-03-05T01:39:23.538Z,0.40
2019-03-05T01:41:52.783Z,0.23
2019-03-05T01:44:21.631Z,0.30
2019-03-05T01:46:50.678Z,0.47
2019-03-05T01:49:19.675Z,0.40
2019-03-05T01:51:48.711Z,0.43
2019-03-05T01:54:17.901Z,0.40
2019-03-05T01:56:46.844Z,0.37
2019-03-05T01:59:15.670Z,0.37
2019-03-05T02:01:44.898Z,0.30
2019-03-05T02:04:14.150Z,0.30
2019-03-05T02:06:43.329Z,0.50
2019-03-05T02:09:12.751Z,0.47
2019-03-05T02:11:41.695Z,0.33
2019-03-05T02:14:10.978Z,0.40
2019-03-05T02:16:39.877Z,0.30
2019-03-05T02:19:34.018Z,0.42
2019-03-05T02:22:03.039Z,0.40
2019-03-05T02:25:08.433Z,0.40
2019-03-05T02:28:02.075Z,0.65
2019-03-05T02:30:59.767Z,0.40
2019-03-05T02:34:00.445Z,0.20
2019-03-05T02:37:07.573Z,0.40
2019-03-05T02:39:55.087Z,0.45
2019-03-05T02:42:56.772Z,0.50
2019-03-05T02:45:33.498Z,0.33
2019-03-05T02:48:42.715Z,0.53
2019-03-05T02:51:40.805Z,0.37
2019-03-05T02:54:48.195Z,0.45
2019-03-05T02:57:15.679Z,0.30
2019-03-05T02:59:44.519Z,0.40
2019-03-05T03:02:42.007Z,0.23
2019-03-05T03:05:18.800Z,0.50
2019-03-05T03:07:47.747Z,0.33
2019-03-05T03:10:24.739Z,0.40
2019-03-05T03:12:54.139Z,0.40
2019-03-05T03:15:23.150Z,0.40
2019-03-05T03:17:52.192Z,0.20
2019-03-05T03:20:22.171Z,0.40
2019-03-05T03:22:51.133Z,0.50
2019-03-05T03:25:21.579Z,0.40
2019-03-05T03:27:50.553Z,0.33
2019-03-05T03:30:22.103Z,0.50
2019-03-05T03:32:51.147Z,0.40
2019-03-05T03:35:20.250Z,0.50
2019-03-05T03:37:49.166Z,0.57
2019-03-05T03:40:20.461Z,0.55
2019-03-05T03:42:49.459Z,0.40
2019-03-05T03:45:23.182Z,0.70
2019-03-05T03:47:52.326Z,0.70
2019-03-05T03:50:21.394Z,0.50
2019-03-05T03:52:50.287Z,0.72
2019-03-05T03:55:19.429Z,0.80
2019-03-05T03:57:48.899Z,0.57
2019-03-05T04:00:20.105Z,0.95
2019-03-05T04:02:49.431Z,1.00
2019-03-05T04:05:18.494Z,0.70
2019-03-05T04:07:47.675Z,1.00
2019-03-05T04:10:16.620Z,0.80
2019-03-05T04:12:45.504Z,0.80
2019-03-05T04:15:16.302Z,0.70
2019-03-05T04:17:45.436Z,0.80
2019-03-05T04:20:23.831Z,0.82
2019-03-05T04:22:53.458Z,0.80
2019-03-05T04:25:22.361Z,0.70
2019-03-05T04:27:51.199Z,0.80
2019-03-05T04:30:20.034Z,0.70
2019-03-05T04:32:49.323Z,0.60
2019-03-05T04:35:18.678Z,0.98
2019-03-05T04:37:47.832Z,0.75
2019-03-05T04:40:17.046Z,0.80
2019-03-05T04:42:46.302Z,0.53
2019-03-05T04:45:27.237Z,0.75
2019-03-05T04:47:56.114Z,0.65
2019-03-05T04:50:33.018Z,0.88
2019-03-05T04:53:01.931Z,0.60
2019-03-05T04:55:30.869Z,0.67
2019-03-05T04:57:59.739Z,0.80
2019-03-05T05:00:28.785Z,0.70
2019-03-05T05:02:58.515Z,1.10
2019-03-05T05:05:27.708Z,0.70
2019-03-05T05:07:56.623Z,0.78
2019-03-05T05:10:25.924Z,0.60
2019-03-05T05:12:55.052Z,0.70
2019-03-05T05:15:26.649Z,1.05
2019-03-05T05:17:55.883Z,1.00
2019-03-05T05:20:25.038Z,0.82
2019-03-05T05:22:54.443Z,0.88
2019-03-05T05:25:23.666Z,0.93
2019-03-05T05:27:52.665Z,0.72
2019-03-05T05:30:47.452Z,0.78
2019-03-05T05:33:16.456Z,0.70
2019-03-05T05:35:45.482Z,1.02
2019-03-05T05:38:14.391Z,1.00
2019-03-05T05:40:45.094Z,1.00
2019-03-05T05:43:16.676Z,1.00
2019-03-05T05:45:47.146Z,0.50
2019-03-05T05:48:16.647Z,0.70
2019-03-05T05:50:45.662Z,0.70
2019-03-05T05:53:14.872Z,1.00
2019-03-05T05:55:44.163Z,0.67
2019-03-05T05:58:13.175Z,0.80
2019-03-05T06:00:44.254Z,0.97
2019-03-05T06:03:13.435Z,0.60
2019-03-05T06:05:42.730Z,0.98
2019-03-05T06:08:11.715Z,0.57
2019-03-05T06:10:40.642Z,0.80
2019-03-05T06:13:09.766Z,0.98
2019-03-05T06:15:38.778Z,0.77
2019-03-05T06:18:08.001Z,0.80
2019-03-05T06:20:37.270Z,0.80
2019-03-05T06:23:06.216Z,0.57
2019-03-05T06:25:35.594Z,0.80
2019-03-05T06:28:04.504Z,0.72
2019-03-05T06:30:34.058Z,1.10
2019-03-05T06:33:03.062Z,1.12
2019-03-05T06:35:32.085Z,0.80
2019-03-05T06:38:01.112Z,0.60
2019-03-05T06:40:30.224Z,0.70
2019-03-05T06:42:59.127Z,0.80
2019-03-05T06:45:28.103Z,0.43
2019-03-05T06:47:57.130Z,0.82
2019-03-05T06:50:26.410Z,0.90
2019-03-05T06:52:55.298Z,0.60
2019-03-05T06:55:24.414Z,0.80
2019-03-05T06:57:53.266Z,0.62
2019-03-05T07:00:37.865Z,0.90
2019-03-05T07:03:07.615Z,0.50
2019-03-05T07:06:13.156Z,0.63
2019-03-05T07:08:48.771Z,0.50
2019-03-05T07:11:56.066Z,0.70
2019-03-05T07:14:37.907Z,0.80
2019-03-05T07:17:11.645Z,0.70
2019-03-05T07:20:06.729Z,0.70
2019-03-05T07:22:45.959Z,0.70
2019-03-05T07:25:14.964Z,0.60
2019-03-05T07:27:50.324Z,0.60
2019-03-05T07:30:20.638Z,0.70
2019-03-05T07:32:49.963Z,0.60
2019-03-05T07:35:22.065Z,0.95
2019-03-05T07:37:51.297Z,0.55
2019-03-05T07:40:20.193Z,0.45
2019-03-05T07:42:49.134Z,1.17
2019-03-05T07:45:18.230Z,0.60
2019-03-05T07:47:47.193Z,0.80
2019-03-05T07:50:16.487Z,0.70
2019-03-05T07:52:45.507Z,0.75
2019-03-05T07:55:16.239Z,0.85
2019-03-05T07:57:45.157Z,0.78
2019-03-05T08:00:21.622Z,0.70
2019-03-05T08:02:50.508Z,0.90
2019-03-05T08:05:20.093Z,0.72
2019-03-05T08:07:49.095Z,0.70
2019-03-05T08:10:23.658Z,0.90
2019-03-05T08:13:07.811Z,0.70
2019-03-05T08:16:01.934Z,0.77
2019-03-05T08:18:25.270Z,0.80
2019-03-05T08:20:55.080Z,0.70
2019-03-05T08:23:24.598Z,0.80
2019-03-05T08:25:53.532Z,0.80
2019-03-05T08:28:22.547Z,1.00
2019-03-05T08:30:51.490Z,1.00
2019-03-05T08:33:20.371Z,0.62
2019-03-05T08:35:49.192Z,0.60
2019-03-05T08:38:18.455Z,0.40
2019-03-05T08:40:47.742Z,0.70
2019-03-05T08:43:16.689Z,0.78
2019-03-05T08:45:45.646Z,0.43
2019-03-05T08:48:14.880Z,0.37
2019-03-05T08:50:43.762Z,0.40
2019-03-05T08:53:12.935Z,0.50
2019-03-05T08:55:41.854Z,0.50
2019-03-05T08:58:10.827Z,0.55
2019-03-05T09:00:39.639Z,0.40
2019-03-05T09:03:08.659Z,0.42
2019-03-05T09:05:37.920Z,0.37
2019-03-05T09:08:07.267Z,0.40
2019-03-05T09:10:36.499Z,0.53
2019-03-05T09:13:07.340Z,0.55
2019-03-05T09:15:36.257Z,0.60
2019-03-05T09:18:05.264Z,0.60
2019-03-05T09:20:34.727Z,0.40
2019-03-05T09:23:03.763Z,0.47
2019-03-05T09:25:32.593Z,0.50
2019-03-05T09:28:01.515Z,0.50
2019-03-05T09:30:31.559Z,0.50
2019-03-05T09:33:00.365Z,0.40
2019-03-05T09:35:29.703Z,0.37
2019-03-05T09:37:58.699Z,0.45
2019-03-05T09:40:27.614Z,0.40
2019-03-05T09:42:56.789Z,0.50
2019-03-05T09:45:28.207Z,0.50
2019-03-05T09:47:57.139Z,0.65
2019-03-05T09:50:26.155Z,0.60
2019-03-05T09:52:55.513Z,0.50
2019-03-05T09:55:26.027Z,0.60
2019-03-05T09:58:06.870Z,0.50
2019-03-05T10:00:26.151Z,0.70
2019-03-05T10:02:55.140Z,0.75
2019-03-05T10:05:24.255Z,0.60
2019-03-05T10:07:53.286Z,0.75
2019-03-05T10:10:23.748Z,0.72
2019-03-05T10:12:52.975Z,0.57
2019-03-05T10:15:22.203Z,0.72
2019-03-05T10:17:51.343Z,0.70
2019-03-05T10:20:21.749Z,0.80
2019-03-05T10:22:51.203Z,0.90
2019-03-05T10:25:21.417Z,0.80
2019-03-05T10:27:50.518Z,1.05
2019-03-05T10:30:25.596Z,0.95
2019-03-05T10:32:54.770Z,0.90
2019-03-05T10:35:25.479Z,0.98
2019-03-05T10:37:55.899Z,0.90
2019-03-05T10:40:26.458Z,0.80
2019-03-05T10:42:55.511Z,1.07
2019-03-05T10:45:24.863Z,0.90
2019-03-05T10:47:53.755Z,1.30
2019-03-05T10:50:25.395Z,0.80
2019-03-05T10:52:54.456Z,0.90
2019-03-05T10:55:26.564Z,0.80
2019-03-05T10:57:54.422Z,0.72
2019-03-05T11:00:28.300Z,0.93
2019-03-05T11:02:57.694Z,0.68
2019-03-05T11:05:28.406Z,0.70
2019-03-05T11:07:57.742Z,0.70
2019-03-05T11:10:29.373Z,0.80
2019-03-05T11:12:58.690Z,0.60
2019-03-05T11:15:27.935Z,0.80
2019-03-05T11:17:56.956Z,0.75
2019-03-05T11:20:25.967Z,0.78
2019-03-05T11:22:55.058Z,0.80
2019-03-05T11:25:24.356Z,1.20
2019-03-05T11:27:53.298Z,1.00
2019-03-05T11:30:35.251Z,0.70
2019-03-05T11:32:55.200Z,0.70
2019-03-05T11:35:25.779Z,0.80
2019-03-05T11:37:54.803Z,0.70
2019-03-05T11:40:24.145Z,0.50
2019-03-05T11:42:53.286Z,0.60
2019-03-05T11:45:24.241Z,0.70
2019-03-05T11:47:53.217Z,0.62
2019-03-05T11:50:23.031Z,0.90
2019-03-05T11:52:52.393Z,0.70
2019-03-05T11:55:21.782Z,0.70
2019-03-05T11:57:50.907Z,0.60
2019-03-05T12:00:43.924Z,0.60
2019-03-05T12:03:12.957Z,0.70
2019-03-05T12:05:42.042Z,0.93
2019-03-05T12:08:11.180Z,0.70
2019-03-05T12:10:40.161Z,0.70
2019-03-05T12:13:09.322Z,1.25
2019-03-05T12:15:38.728Z,0.80
2019-03-05T12:18:07.802Z,0.93
2019-03-05T12:20:36.817Z,0.80
2019-03-05T12:23:06.659Z,0.80
2019-03-05T12:25:39.916Z,0.77
2019-03-05T12:28:10.554Z,0.80
2019-03-05T12:30:38.407Z,1.00
2019-03-05T12:33:07.710Z,0.88
2019-03-05T12:35:36.734Z,0.90
2019-03-05T12:38:05.805Z,1.00
2019-03-05T12:40:34.928Z,0.60
2019-03-05T12:43:04.057Z,0.70
2019-03-05T12:45:33.003Z,0.80
2019-03-05T12:48:02.309Z,0.70
2019-03-05T12:50:31.395Z,1.15
2019-03-05T12:53:00.350Z,0.62
2019-03-05T12:55:29.390Z,0.50
2019-03-05T12:57:58.354Z,0.40
2019-03-05T13:00:28.652Z,0.60
2019-03-05T13:02:57.690Z,0.60
2019-03-05T13:05:26.970Z,0.70
2019-03-05T13:07:56.875Z,0.53
2019-03-05T13:10:27.033Z,0.90
2019-03-05T13:12:56.003Z,0.47
2019-03-05T13:15:27.312Z,0.60
2019-03-05T13:17:56.426Z,0.70
2019-03-05T13:20:26.268Z,0.55
2019-03-05T13:22:55.652Z,0.62
2019-03-05T13:25:28.509Z,0.40
2019-03-05T13:27:57.527Z,0.85
2019-03-05T13:30:27.025Z,0.70
2019-03-05T13:32:59.236Z,0.50
2019-03-05T13:35:30.496Z,0.60
2019-03-05T13:37:58.732Z,0.60
2019-03-05T13:40:30.012Z,0.43
2019-03-05T13:42:58.975Z,0.50
2019-03-05T13:45:28.025Z,0.40
2019-03-05T13:48:23.565Z,0.70
2019-03-05T13:51:51.368Z,0.70
2019-03-05T13:54:50.749Z,1.10
2019-03-05T13:57:55.083Z,1.02
2019-03-05T14:00:23.868Z,0.60
2019-03-05T14:03:08.263Z,0.72
2019-03-05T14:06:26.813Z,0.50
2019-03-05T14:09:19.056Z,0.50
2019-03-05T14:11:49.944Z,0.47
2019-03-05T14:14:24.191Z,0.37
2019-03-05T14:17:01.303Z,0.70
2019-03-05T14:19:30.588Z,0.60
2019-03-05T14:21:59.602Z,0.60
2019-03-05T14:24:29.051Z,0.50
2019-03-05T14:26:58.054Z,0.40
2019-03-05T14:29:29.268Z,0.70
2019-03-05T14:31:57.854Z,0.30
2019-03-05T14:34:26.783Z,0.43
2019-03-05T14:36:56.377Z,0.50
2019-03-05T14:39:27.814Z,0.50
2019-03-05T14:41:57.213Z,0.60
2019-03-05T14:44:26.256Z,0.40
2019-03-05T14:46:56.966Z,0.60
2019-03-05T14:49:26.102Z,0.33
2019-03-05T14:51:55.128Z,0.50
2019-03-05T14:54:24.558Z,0.40
2019-03-05T14:56:53.682Z,0.30
2019-03-05T14:59:23.057Z,0.50
2019-03-05T15:01:52.042Z,0.40
2019-03-05T15:04:21.494Z,0.60
2019-03-05T15:06:50.464Z,0.40
2019-03-05T15:09:19.427Z,0.43
2019-03-05T15:11:48.411Z,0.80
2019-03-05T15:14:17.629Z,0.40
2019-03-05T15:16:46.626Z,0.47
2019-03-05T15:19:21.449Z,0.62
2019-03-05T15:21:46.658Z,0.60
2019-03-05T15:24:15.682Z,0.57
2019-03-05T15:26:44.600Z,0.63
2019-03-05T15:29:13.950Z,0.60
2019-03-05T15:31:46.005Z,0.70
2019-03-05T15:34:14.971Z,0.30
2019-03-05T15:36:44.355Z,0.47
2019-03-05T15:39:13.504Z,0.47
2019-03-05T15:41:45.856Z,0.50
2019-03-05T15:44:15.089Z,0.60
2019-03-05T15:46:43.996Z,0.30
2019-03-05T15:49:13.064Z,0.60
2019-03-05T15:51:42.115Z,0.70
2019-03-05T15:54:11.548Z,0.60
2019-03-05T15:56:40.526Z,0.50
2019-03-05T15:59:09.547Z,0.55
2019-03-05T16:01:38.470Z,0.80
2019-03-05T16:04:07.446Z,0.43
2019-03-05T16:06:36.692Z,0.42
2019-03-05T16:09:16.052Z,0.30
2019-03-05T16:11:44.890Z,0.40
2019-03-05T16:14:14.530Z,0.50
2019-03-05T16:16:43.544Z,0.30
2019-03-05T16:19:16.520Z,0.60
2019-03-05T16:21:44.203Z,0.50
2019-03-05T16:24:13.114Z,0.40
2019-03-05T16:26:42.061Z,0.67
2019-03-05T16:29:11.491Z,0.60
2019-03-05T16:32:17.551Z,0.50
2019-03-05T16:35:18.631Z,0.60
2019-03-05T16:38:20.176Z,0.60
2019-03-05T16:41:02.476Z,0.70
2019-03-05T16:44:02.700Z,0.50
2019-03-05T16:46:45.556Z,0.60
2019-03-05T16:49:24.540Z,0.47
2019-03-05T16:52:21.372Z,0.55
2019-03-05T16:55:09.446Z,0.40
2019-03-05T16:58:00.285Z,0.50
2019-03-05T17:00:49.247Z,0.60
2019-03-05T17:03:33.484Z,0.50
2019-03-05T17:06:16.027Z,0.70
2019-03-05T17:08:59.932Z,0.65
2019-03-05T17:11:38.346Z,0.57
2019-03-05T17:14:08.342Z,0.33
2019-03-05T17:16:37.749Z,0.43
2019-03-05T17:19:06.977Z,0.60
2019-03-05T17:21:35.899Z,0.50
2019-03-05T17:24:06.190Z,0.42
2019-03-05T17:26:35.145Z,0.70
2019-03-05T17:29:04.181Z,0.70
2019-03-05T17:31:33.291Z,0.47
2019-03-05T17:34:02.581Z,0.30
2019-03-05T17:36:31.434Z,0.60
2019-03-05T17:39:00.421Z,0.85
2019-03-05T17:41:32.775Z,0.60
2019-03-05T17:44:01.719Z,0.55
2019-03-05T17:46:30.593Z,0.97
2019-03-05T17:48:59.815Z,1.82
2019-03-05T17:51:30.932Z,1.30
2019-03-05T17:53:59.417Z,0.82
2019-03-05T17:56:28.310Z,0.95
2019-03-05T17:58:57.373Z,0.85
2019-03-05T18:01:26.367Z,1.30
2019-03-05T18:03:55.266Z,1.07
2019-03-05T18:06:24.051Z,1.13
2019-03-05T18:08:53.428Z,1.10
2019-03-05T18:11:22.405Z,1.02
2019-03-05T18:13:51.376Z,1.17
2019-03-05T18:16:20.362Z,0.90
2019-03-05T18:18:49.392Z,1.10
2019-03-05T18:21:18.372Z,0.80
2019-03-05T18:23:47.426Z,0.82
2019-03-05T18:26:16.988Z,1.05
2019-03-05T18:28:46.246Z,1.07
2019-03-05T18:31:15.378Z,1.12
2019-03-05T18:33:44.710Z,1.00
2019-03-05T18:36:13.807Z,0.82
2019-03-05T18:38:43.064Z,2.25
2019-03-05T18:41:12.298Z,1.87
2019-03-05T18:43:41.250Z,1.10
2019-03-05T18:46:10.735Z,1.30
2019-03-05T18:48:40.036Z,1.27
2019-03-05T18:51:09.037Z,1.27
2019-03-05T18:53:37.973Z,1.10
2019-03-05T18:56:07.063Z,1.43
2019-03-05T18:58:36.587Z,2.55
2019-03-05T19:01:06.110Z,1.83
2019-03-05T19:03:35.087Z,2.65
2019-03-05T19:06:04.107Z,2.00
2019-03-05T19:08:33.016Z,1.55
2019-03-05T19:11:02.237Z,1.60
2019-03-05T19:13:31.898Z,1.30
2019-03-05T19:16:01.252Z,1.50
2019-03-05T19:18:30.231Z,1.65
2019-03-05T19:20:59.222Z,1.47
2019-03-05T19:23:28.514Z,1.37
2019-03-05T19:25:57.699Z,1.10
2019-03-05T19:28:26.534Z,0.65
2019-03-05T19:30:55.554Z,0.93
2019-03-05T19:33:24.584Z,1.27
2019-03-05T19:35:53.913Z,1.17
2019-03-05T19:38:22.972Z,3.52
2019-03-05T19:40:52.039Z,2.37
2019-03-05T19:43:21.326Z,2.60
2019-03-05T19:45:50.388Z,3.30
2019-03-05T19:48:19.666Z,2.83
2019-03-05T19:50:48.576Z,2.20
2019-03-05T19:53:17.465Z,2.00
2019-03-05T19:55:46.500Z,2.20
2019-03-05T19:58:15.388Z,1.90
2019-03-05T20:00:55.257Z,1.80
2019-03-05T20:03:24.493Z,1.62
2019-03-05T20:05:53.530Z,1.50
2019-03-05T20:08:23.087Z,1.65
2019-03-05T20:10:52.402Z,1.60
2019-03-05T20:13:21.327Z,1.10
2019-03-05T20:15:50.343Z,1.23
2019-03-05T20:18:19.277Z,0.90
2019-03-05T20:20:48.438Z,1.00
2019-03-05T20:23:17.407Z,1.10
2019-03-05T20:25:46.423Z,1.02
2019-03-05T20:28:16.009Z,1.82
2019-03-05T20:30:45.122Z,2.83
2019-03-05T20:33:14.468Z,2.85
2019-03-05T20:35:43.484Z,1.50
2019-03-05T20:38:12.423Z,1.10
2019-03-05T20:40:41.558Z,1.70
2019-03-05T20:43:10.575Z,1.20
2019-03-05T20:45:39.494Z,1.40
2019-03-05T20:48:08.452Z,0.90
2019-03-05T20:50:37.435Z,1.17
2019-03-05T20:53:06.474Z,1.22
2019-03-05T20:55:35.356Z,0.70
2019-03-05T20:58:04.371Z,1.20
2019-03-05T21:00:33.460Z,1.10
2019-03-05T21:03:03.736Z,1.10
2019-03-05T21:05:37.495Z,1.10
2019-03-05T21:08:07.125Z,1.10
2019-03-05T21:10:36.352Z,0.90
2019-03-05T21:13:05.801Z,1.05
2019-03-05T21:15:35.088Z,1.00
2019-03-05T21:18:04.913Z,0.80
2019-03-05T21:20:33.986Z,0.93
2019-03-05T21:23:02.910Z,1.20
2019-03-05T21:25:32.223Z,1.13
2019-03-05T21:28:01.249Z,1.37
2019-03-05T21:30:30.278Z,0.90
2019-03-05T21:32:59.229Z,1.27
2019-03-05T21:35:28.363Z,1.10
2019-03-05T21:37:57.941Z,1.12
2019-03-05T21:40:27.050Z,1.05
2019-03-05T21:42:56.325Z,2.22
2019-03-05T21:45:31.420Z,2.00
2019-03-05T21:48:00.726Z,1.80
2019-03-05T21:50:29.723Z,1.37
2019-03-05T21:52:58.724Z,1.02
2019-03-05T21:55:28.290Z,1.35
2019-03-05T21:57:57.567Z,1.17
2019-03-05T22:00:28.322Z,1.30
2019-03-05T22:02:57.887Z,1.30
2019-03-05T22:05:27.115Z,1.20
2019-03-05T22:07:56.094Z,1.07
2019-03-05T22:10:25.213Z,1.20
2019-03-05T22:12:54.355Z,1.30
2019-03-05T22:15:23.407Z,1.17
2019-03-05T22:17:52.451Z,1.10
2019-03-05T22:20:22.391Z,1.15
2019-03-05T22:22:51.356Z,0.90
2019-03-05T22:25:20.529Z,1.15
2019-03-05T22:27:49.548Z,1.00
2019-03-05T22:30:23.438Z,0.90
2019-03-05T22:32:52.823Z,1.27
2019-03-05T22:35:22.344Z,1.25
2019-03-05T22:37:51.695Z,1.20
2019-03-05T22:40:20.644Z,1.30
2019-03-05T22:42:49.525Z,1.52
2019-03-05T22:45:20.054Z,1.45
2019-03-05T22:47:49.682Z,1.45
2019-03-05T22:50:19.078Z,1.60
2019-03-05T22:52:47.983Z,1.30
2019-03-05T22:55:17.338Z,1.70
2019-03-05T22:57:46.371Z,1.70
2019-03-05T23:00:59.169Z,1.77
2019-03-05T23:03:28.628Z,1.90
2019-03-05T23:05:57.816Z,1.70
2019-03-05T23:08:27.360Z,1.37
2019-03-05T23:10:56.294Z,1.40
2019-03-05T23:13:25.777Z,1.60
2019-03-05T23:15:54.883Z,1.30
2019-03-05T23:18:24.069Z,1.40
2019-03-05T23:20:53.414Z,1.80
2019-03-05T23:23:22.515Z,1.70
2019-03-05T23:25:51.566Z,1.63
2019-03-05T23:28:20.565Z,1.12
2019-03-05T23:30:49.990Z,1.27
2019-03-05T23:33:20.179Z,1.52
2019-03-05T23:35:49.086Z,1.10
2019-03-05T23:38:18.167Z,1.10
2019-03-05T23:40:47.542Z,1.50
2019-03-05T23:43:16.334Z,1.50
2019-03-05T23:45:45.277Z,1.50
2019-03-05T23:48:14.499Z,1.45
2019-03-05T23:50:43.534Z,1.63
2019-03-05T23:53:12.698Z,1.35
2019-03-05T23:55:41.647Z,1.67
2019-03-05T23:58:10.976Z,1.67
